sensor_id;sensor_type;location;lat;lon;timestamp;temperature;humidity
6581;DHT22;3324;50.796;7.228;2024-01-15T00:01:12;3.00;99.90
6581;DHT22;3324;50.796;7.228;2024-01-15T00:03:37;2.90;99.90
6581;DHT22;3324;50.796;7.228;2024-01-15T00:06:03;3.00;99.90
6581;DHT22;3324;50.796;7.228;2024-01-15T00:08:28;2.90;99.90
6581;DHT22;3324;50.796;7.228;2024-01-15T00:10:54;3.00;99.90
6581;DHT22;3324;50.796;7.228;2024-01-15T00:13:19;3.00;99.90
6581;DHT22;3324;50.796;7.228;2024-01-15T00:15:45;3.00;99.90
6581;DHT22;3324;50.796;7.228;2024-01-15T00:18:10;3.00;99.90
6581;DHT22;3324;50.796;7.228;2024-01-15T00:20:36;3.10;99.90
6581;DHT22;3324;50.796;7.228;2024-01-15T00:23:01;3.10;99.90
6581;DHT22;3324;50.796;7.228;2024-01-15T00:25:26;3.10;99.90
6581;DHT22;3324;50.796;7.228;2024-01-15T00:27:52;3.00;99.90
6581;DHT22;3324;50.796;7.228;2024-01-15T00:30:17;3.00;99.90
6581;DHT22;3324;50.796;7.228;2024-01-15T00:32:43;3.00;99.90
6581;DHT22;3324;50.796;7.228;2024-01-15T00:35:09;3.00;99.90
6581;DHT22;3324;50.796;7.228;2024-01-15T00:37:34;3.00;99.90
6581;DHT22;3324;50.796;7.228;2024-01-15T00:40:00;2.90;99.90
6581;DHT22;3324;50.796;7.228;2024-01-15T00:42:26;2.90;99.90
6581;DHT22;3324;50.796;7.228;2024-01-15T00:44:51;2.90;99.90
6581;DHT22;3324;50.796;7.228;2024-01-15T00:47:18;2.90;99.90
6581;DHT22;3324;50.796;7.228;2024-01-15T00:49:43;2.90;99.90
6581;DHT22;3324;50.796;7.228;2024-01-15T00:52:09;2.90;99.90
6581;DHT22;3324;50.796;7.228;2024-01-15T00:54:34;2.90;99.90
6581;DHT22;3324;50.796;7.228;2024-01-15T00:57:00;2.90;99.90
6581;DHT22;3324;50.796;7.228;2024-01-15T00:59:25;2.90;99.90
6581;DHT22;3324;50.796;7.228;2024-01-15T01:01:51;2.90;99.90
6581;DHT22;3324;50.796;7.228;2024-01-15T01:04:16;2.90;99.90
6581;DHT22;3324;50.796;7.228;2024-01-15T01:06:42;2.90;99.90
6581;DHT22;3324;50.796;7.228;2024-01-15T01:09:07;2.90;99.90
6581;DHT22;3324;50.796;7.228;2024-01-15T01:11:33;2.90;99.90
6581;DHT22;3324;50.796;7.228;2024-01-15T01:13:58;2.90;99.90
6581;DHT22;3324;50.796;7.228;2024-01-15T01:16:24;2.80;99.90
6581;DHT22;3324;50.796;7.228;2024-01-15T01:18:49;2.80;99.90
6581;DHT22;3324;50.796;7.228;2024-01-15T01:21:15;2.90;99.90
6581;DHT22;3324;50.796;7.228;2024-01-15T01:23:40;2.80;99.90
6581;DHT22;3324;50.796;7.228;2024-01-15T01:26:06;2.80;99.90
6581;DHT22;3324;50.796;7.228;2024-01-15T01:28:31;2.80;99.90
6581;DHT22;3324;50.796;7.228;2024-01-15T01:30:56;2.80;99.90
6581;DHT22;3324;50.796;7.228;2024-01-15T01:33:22;2.80;99.90
6581;DHT22;3324;50.796;7.228;2024-01-15T01:35:47;2.70;99.90
6581;DHT22;3324;50.796;7.228;2024-01-15T01:38:13;2.70;99.90
6581;DHT22;3324;50.796;7.228;2024-01-15T01:40:38;2.80;99.90
6581;DHT22;3324;50.796;7.228;2024-01-15T01:43:08;2.80;99.90
6581;DHT22;3324;50.796;7.228;2024-01-15T01:45:34;2.80;99.90
6581;DHT22;3324;50.796;7.228;2024-01-15T01:48:00;2.90;99.90
6581;DHT22;3324;50.796;7.228;2024-01-15T01:50:25;2.80;99.90
6581;DHT22;3324;50.796;7.228;2024-01-15T01:52:51;2.80;99.90
6581;DHT22;3324;50.796;7.228;2024-01-15T01:55:16;2.80;99.90
6581;DHT22;3324;50.796;7.228;2024-01-15T01:57:43;2.80;99.90
6581;DHT22;3324;50.796;7.228;2024-01-15T02:00:09;2.80;99.90
6581;DHT22;3324;50.796;7.228;2024-01-15T02:02:35;2.80;99.90
6581;DHT22;3324;50.796;7.228;2024-01-15T02:05:01;2.80;99.90
6581;DHT22;3324;50.796;7.228;2024-01-15T02:07:26;2.80;99.90
6581;DHT22;3324;50.796;7.228;2024-01-15T02:09:52;2.70;99.90
6581;DHT22;3324;50.796;7.228;2024-01-15T02:12:18;2.70;99.90
6581;DHT22;3324;50.796;7.228;2024-01-15T02:14:43;2.80;99.90
6581;DHT22;3324;50.796;7.228;2024-01-15T02:17:09;2.70;99.90
6581;DHT22;3324;50.796;7.228;2024-01-15T02:19:34;2.80;99.90
6581;DHT22;3324;50.796;7.228;2024-01-15T02:22:00;2.70;99.90
6581;DHT22;3324;50.796;7.228;2024-01-15T02:24:25;2.80;99.90
6581;DHT22;3324;50.796;7.228;2024-01-15T02:26:51;2.80;99.90
6581;DHT22;3324;50.796;7.228;2024-01-15T02:29:16;2.80;99.90
6581;DHT22;3324;50.796;7.228;2024-01-15T02:31:42;2.80;99.90
6581;DHT22;3324;50.796;7.228;2024-01-15T02:34:08;2.80;99.90
6581;DHT22;3324;50.796;7.228;2024-01-15T02:36:33;2.80;99.90
6581;DHT22;3324;50.796;7.228;2024-01-15T02:38:59;2.80;99.90
6581;DHT22;3324;50.796;7.228;2024-01-15T02:41:24;2.80;99.90
6581;DHT22;3324;50.796;7.228;2024-01-15T02:43:50;2.80;99.90
6581;DHT22;3324;50.796;7.228;2024-01-15T02:46:15;2.80;99.90
6581;DHT22;3324;50.796;7.228;2024-01-15T02:48:41;2.80;99.90
6581;DHT22;3324;50.796;7.228;2024-01-15T02:51:07;2.80;99.90
6581;DHT22;3324;50.796;7.228;2024-01-15T02:53:32;2.80;99.90
6581;DHT22;3324;50.796;7.228;2024-01-15T02:55:57;2.80;99.90
6581;DHT22;3324;50.796;7.228;2024-01-15T02:58:23;2.80;99.90
6581;DHT22;3324;50.796;7.228;2024-01-15T03:00:48;2.80;99.90
6581;DHT22;3324;50.796;7.228;2024-01-15T03:03:14;2.80;99.90
6581;DHT22;3324;50.796;7.228;2024-01-15T03:05:39;2.80;99.90
6581;DHT22;3324;50.796;7.228;2024-01-15T03:08:05;2.80;99.90
6581;DHT22;3324;50.796;7.228;2024-01-15T03:10:30;2.80;99.90
6581;DHT22;3324;50.796;7.228;2024-01-15T03:12:57;2.80;99.90
6581;DHT22;3324;50.796;7.228;2024-01-15T03:15:22;2.80;99.90
6581;DHT22;3324;50.796;7.228;2024-01-15T03:17:47;2.80;99.90
6581;DHT22;3324;50.796;7.228;2024-01-15T03:20:13;2.80;99.90
6581;DHT22;3324;50.796;7.228;2024-01-15T03:22:38;2.80;99.90
6581;DHT22;3324;50.796;7.228;2024-01-15T03:25:04;2.90;99.90
6581;DHT22;3324;50.796;7.228;2024-01-15T03:27:30;2.80;99.90
6581;DHT22;3324;50.796;7.228;2024-01-15T03:29:55;2.80;99.90
6581;DHT22;3324;50.796;7.228;2024-01-15T03:32:21;2.80;99.90
6581;DHT22;3324;50.796;7.228;2024-01-15T03:34:46;2.90;99.90
6581;DHT22;3324;50.796;7.228;2024-01-15T03:37:13;2.90;99.90
6581;DHT22;3324;50.796;7.228;2024-01-15T03:39:38;2.90;99.90
6581;DHT22;3324;50.796;7.228;2024-01-15T03:42:04;2.90;99.90
6581;DHT22;3324;50.796;7.228;2024-01-15T03:44:29;2.90;99.90
6581;DHT22;3324;50.796;7.228;2024-01-15T03:46:55;2.80;99.90
6581;DHT22;3324;50.796;7.228;2024-01-15T03:49:20;2.90;99.90
6581;DHT22;3324;50.796;7.228;2024-01-15T03:51:46;2.90;99.90
6581;DHT22;3324;50.796;7.228;2024-01-15T03:54:11;2.90;99.90
6581;DHT22;3324;50.796;7.228;2024-01-15T03:56:37;2.90;99.90
6581;DHT22;3324;50.796;7.228;2024-01-15T03:59:02;2.90;99.90
6581;DHT22;3324;50.796;7.228;2024-01-15T04:01:28;2.90;99.90
6581;DHT22;3324;50.796;7.228;2024-01-15T04:03:54;2.90;99.90
6581;DHT22;3324;50.796;7.228;2024-01-15T04:06:19;2.90;99.90
6581;DHT22;3324;50.796;7.228;2024-01-15T04:08:45;2.90;99.90
6581;DHT22;3324;50.796;7.228;2024-01-15T04:11:10;2.90;99.90
6581;DHT22;3324;50.796;7.228;2024-01-15T04:13:36;2.90;99.90
6581;DHT22;3324;50.796;7.228;2024-01-15T04:16:01;2.90;99.90
6581;DHT22;3324;50.796;7.228;2024-01-15T04:18:27;2.90;99.90
6581;DHT22;3324;50.796;7.228;2024-01-15T04:20:52;2.90;99.90
6581;DHT22;3324;50.796;7.228;2024-01-15T04:23:18;2.90;99.90
6581;DHT22;3324;50.796;7.228;2024-01-15T04:25:43;2.90;99.90
6581;DHT22;3324;50.796;7.228;2024-01-15T04:28:09;2.90;99.90
6581;DHT22;3324;50.796;7.228;2024-01-15T04:30:34;2.90;99.90
6581;DHT22;3324;50.796;7.228;2024-01-15T04:33:00;2.90;99.90
6581;DHT22;3324;50.796;7.228;2024-01-15T04:35:26;3.10;99.90
6581;DHT22;3324;50.796;7.228;2024-01-15T04:37:51;3.20;99.90
6581;DHT22;3324;50.796;7.228;2024-01-15T04:40:17;3.20;99.90
6581;DHT22;3324;50.796;7.228;2024-01-15T04:42:42;3.20;99.90
6581;DHT22;3324;50.796;7.228;2024-01-15T04:45:08;3.00;99.90
6581;DHT22;3324;50.796;7.228;2024-01-15T04:47:33;3.00;99.90
6581;DHT22;3324;50.796;7.228;2024-01-15T04:49:59;3.00;99.90
6581;DHT22;3324;50.796;7.228;2024-01-15T04:52:24;3.00;99.90
6581;DHT22;3324;50.796;7.228;2024-01-15T04:54:50;3.00;99.90
6581;DHT22;3324;50.796;7.228;2024-01-15T04:57:15;3.00;99.90
6581;DHT22;3324;50.796;7.228;2024-01-15T04:59:41;3.00;99.90
6581;DHT22;3324;50.796;7.228;2024-01-15T05:02:06;3.00;99.90
6581;DHT22;3324;50.796;7.228;2024-01-15T05:04:32;3.00;99.90
6581;DHT22;3324;50.796;7.228;2024-01-15T05:06:58;3.00;99.90
6581;DHT22;3324;50.796;7.228;2024-01-15T05:09:23;3.10;99.90
6581;DHT22;3324;50.796;7.228;2024-01-15T05:11:49;3.10;99.90
6581;DHT22;3324;50.796;7.228;2024-01-15T05:14:14;3.10;99.90
6581;DHT22;3324;50.796;7.228;2024-01-15T05:16:46;3.10;99.90
6581;DHT22;3324;50.796;7.228;2024-01-15T05:19:11;3.00;99.90
6581;DHT22;3324;50.796;7.228;2024-01-15T05:21:37;2.90;99.90
6581;DHT22;3324;50.796;7.228;2024-01-15T05:24:02;3.00;99.90
6581;DHT22;3324;50.796;7.228;2024-01-15T05:26:28;3.00;99.90
6581;DHT22;3324;50.796;7.228;2024-01-15T05:28:53;2.90;99.90
6581;DHT22;3324;50.796;7.228;2024-01-15T05:31:19;2.90;99.90
6581;DHT22;3324;50.796;7.228;2024-01-15T05:33:44;3.00;99.90
6581;DHT22;3324;50.796;7.228;2024-01-15T05:36:10;3.00;99.90
6581;DHT22;3324;50.796;7.228;2024-01-15T05:38:35;3.00;99.90
6581;DHT22;3324;50.796;7.228;2024-01-15T05:41:01;3.00;99.90
6581;DHT22;3324;50.796;7.228;2024-01-15T05:43:26;3.00;99.90
6581;DHT22;3324;50.796;7.228;2024-01-15T05:45:52;3.00;99.90
6581;DHT22;3324;50.796;7.228;2024-01-15T05:48:17;3.00;99.90
6581;DHT22;3324;50.796;7.228;2024-01-15T05:50:43;3.00;99.90
6581;DHT22;3324;50.796;7.228;2024-01-15T05:53:09;3.10;99.90
6581;DHT22;3324;50.796;7.228;2024-01-15T05:55:35;3.10;99.90
6581;DHT22;3324;50.796;7.228;2024-01-15T05:58:00;3.10;99.90
6581;DHT22;3324;50.796;7.228;2024-01-15T06:00:26;3.20;99.90
6581;DHT22;3324;50.796;7.228;2024-01-15T06:02:51;3.10;99.90
6581;DHT22;3324;50.796;7.228;2024-01-15T06:05:17;3.20;99.90
6581;DHT22;3324;50.796;7.228;2024-01-15T06:07:42;3.10;99.90
6581;DHT22;3324;50.796;7.228;2024-01-15T06:10:07;3.10;99.90
6581;DHT22;3324;50.796;7.228;2024-01-15T06:12:33;3.10;99.90
6581;DHT22;3324;50.796;7.228;2024-01-15T06:14:59;3.20;99.90
6581;DHT22;3324;50.796;7.228;2024-01-15T06:17:24;3.10;99.90
6581;DHT22;3324;50.796;7.228;2024-01-15T06:19:50;3.20;99.90
6581;DHT22;3324;50.796;7.228;2024-01-15T06:22:15;3.10;99.90
6581;DHT22;3324;50.796;7.228;2024-01-15T06:24:41;3.20;99.90
6581;DHT22;3324;50.796;7.228;2024-01-15T06:27:06;3.10;99.90
6581;DHT22;3324;50.796;7.228;2024-01-15T06:29:32;3.20;99.90
6581;DHT22;3324;50.796;7.228;2024-01-15T06:31:57;3.20;99.90
6581;DHT22;3324;50.796;7.228;2024-01-15T06:34:23;3.20;99.90
6581;DHT22;3324;50.796;7.228;2024-01-15T06:36:48;3.20;99.90
6581;DHT22;3324;50.796;7.228;2024-01-15T06:39:14;3.10;99.90
6581;DHT22;3324;50.796;7.228;2024-01-15T06:41:39;3.20;99.90
6581;DHT22;3324;50.796;7.228;2024-01-15T06:44:11;3.20;99.90
6581;DHT22;3324;50.796;7.228;2024-01-15T06:46:41;3.10;99.90
6581;DHT22;3324;50.796;7.228;2024-01-15T06:49:06;3.20;99.90
6581;DHT22;3324;50.796;7.228;2024-01-15T06:51:32;3.20;99.90
6581;DHT22;3324;50.796;7.228;2024-01-15T06:53:57;3.20;99.90
6581;DHT22;3324;50.796;7.228;2024-01-15T06:56:23;3.20;99.90
6581;DHT22;3324;50.796;7.228;2024-01-15T06:58:48;3.10;99.90
6581;DHT22;3324;50.796;7.228;2024-01-15T07:01:14;3.10;99.90
6581;DHT22;3324;50.796;7.228;2024-01-15T07:03:39;3.10;99.90
6581;DHT22;3324;50.796;7.228;2024-01-15T07:06:05;3.20;99.90
6581;DHT22;3324;50.796;7.228;2024-01-15T07:08:30;3.10;99.90
6581;DHT22;3324;50.796;7.228;2024-01-15T07:10:56;3.00;99.90
6581;DHT22;3324;50.796;7.228;2024-01-15T07:13:22;3.10;99.90
6581;DHT22;3324;50.796;7.228;2024-01-15T07:15:47;3.00;99.90
6581;DHT22;3324;50.796;7.228;2024-01-15T07:18:13;3.00;99.90
6581;DHT22;3324;50.796;7.228;2024-01-15T07:20:38;3.00;99.90
6581;DHT22;3324;50.796;7.228;2024-01-15T07:23:04;3.00;99.90
6581;DHT22;3324;50.796;7.228;2024-01-15T07:25:29;3.00;99.90
6581;DHT22;3324;50.796;7.228;2024-01-15T07:27:55;3.00;99.90
6581;DHT22;3324;50.796;7.228;2024-01-15T07:30:21;2.90;99.90
6581;DHT22;3324;50.796;7.228;2024-01-15T07:32:47;3.00;99.90
6581;DHT22;3324;50.796;7.228;2024-01-15T07:35:14;3.00;99.90
6581;DHT22;3324;50.796;7.228;2024-01-15T07:37:40;3.00;99.90
6581;DHT22;3324;50.796;7.228;2024-01-15T07:40:06;3.00;99.90
6581;DHT22;3324;50.796;7.228;2024-01-15T07:42:34;3.00;99.90
6581;DHT22;3324;50.796;7.228;2024-01-15T07:44:59;3.00;99.90
6581;DHT22;3324;50.796;7.228;2024-01-15T07:47:25;3.00;99.90
6581;DHT22;3324;50.796;7.228;2024-01-15T07:49:50;3.00;99.90
6581;DHT22;3324;50.796;7.228;2024-01-15T07:52:16;3.00;99.90
6581;DHT22;3324;50.796;7.228;2024-01-15T07:54:41;3.00;99.90
6581;DHT22;3324;50.796;7.228;2024-01-15T07:57:07;3.00;99.90
6581;DHT22;3324;50.796;7.228;2024-01-15T07:59:32;3.00;99.90
6581;DHT22;3324;50.796;7.228;2024-01-15T08:01:59;3.00;99.90
6581;DHT22;3324;50.796;7.228;2024-01-15T08:04:25;2.90;99.90
6581;DHT22;3324;50.796;7.228;2024-01-15T08:06:50;2.90;99.90
6581;DHT22;3324;50.796;7.228;2024-01-15T08:09:16;2.90;99.90
6581;DHT22;3324;50.796;7.228;2024-01-15T08:11:42;2.90;99.90
6581;DHT22;3324;50.796;7.228;2024-01-15T08:14:08;3.00;99.90
6581;DHT22;3324;50.796;7.228;2024-01-15T08:16:33;2.90;99.90
6581;DHT22;3324;50.796;7.228;2024-01-15T08:18:59;3.00;99.90
6581;DHT22;3324;50.796;7.228;2024-01-15T08:21:24;3.00;99.90
6581;DHT22;3324;50.796;7.228;2024-01-15T08:23:50;3.10;99.90
6581;DHT22;3324;50.796;7.228;2024-01-15T08:26:15;3.10;99.90
6581;DHT22;3324;50.796;7.228;2024-01-15T08:28:41;3.10;99.90
6581;DHT22;3324;50.796;7.228;2024-01-15T08:31:06;3.10;99.90
6581;DHT22;3324;50.796;7.228;2024-01-15T08:33:32;3.20;99.90
6581;DHT22;3324;50.796;7.228;2024-01-15T08:35:57;3.10;99.90
6581;DHT22;3324;50.796;7.228;2024-01-15T08:38:23;3.20;99.90
6581;DHT22;3324;50.796;7.228;2024-01-15T08:40:49;3.30;99.90
6581;DHT22;3324;50.796;7.228;2024-01-15T08:43:14;3.30;99.90
6581;DHT22;3324;50.796;7.228;2024-01-15T08:45:40;3.20;99.90
6581;DHT22;3324;50.796;7.228;2024-01-15T08:48:05;3.20;99.90
6581;DHT22;3324;50.796;7.228;2024-01-15T08:50:31;3.20;99.90
6581;DHT22;3324;50.796;7.228;2024-01-15T08:52:57;3.20;99.90
6581;DHT22;3324;50.796;7.228;2024-01-15T08:55:22;3.20;99.90
6581;DHT22;3324;50.796;7.228;2024-01-15T08:57:48;3.20;99.90
6581;DHT22;3324;50.796;7.228;2024-01-15T09:00:14;3.30;99.90
6581;DHT22;3324;50.796;7.228;2024-01-15T09:02:39;3.20;99.90
6581;DHT22;3324;50.796;7.228;2024-01-15T09:05:05;3.20;99.90
6581;DHT22;3324;50.796;7.228;2024-01-15T09:07:31;3.30;99.90
6581;DHT22;3324;50.796;7.228;2024-01-15T09:09:57;3.30;99.90
6581;DHT22;3324;50.796;7.228;2024-01-15T09:12:25;3.30;99.90
6581;DHT22;3324;50.796;7.228;2024-01-15T09:14:50;3.20;99.90
6581;DHT22;3324;50.796;7.228;2024-01-15T09:17:17;3.20;99.90
6581;DHT22;3324;50.796;7.228;2024-01-15T09:19:43;3.30;99.90
6581;DHT22;3324;50.796;7.228;2024-01-15T09:22:09;3.30;99.90
6581;DHT22;3324;50.796;7.228;2024-01-15T09:24:35;3.30;99.90
6581;DHT22;3324;50.796;7.228;2024-01-15T09:27:00;3.30;99.90
6581;DHT22;3324;50.796;7.228;2024-01-15T09:29:26;3.30;99.90
6581;DHT22;3324;50.796;7.228;2024-01-15T09:31:51;3.30;99.90
6581;DHT22;3324;50.796;7.228;2024-01-15T09:34:17;3.30;99.90
6581;DHT22;3324;50.796;7.228;2024-01-15T09:36:43;3.20;99.90
6581;DHT22;3324;50.796;7.228;2024-01-15T09:39:09;3.30;99.90
6581;DHT22;3324;50.796;7.228;2024-01-15T09:41:36;3.30;99.90
6581;DHT22;3324;50.796;7.228;2024-01-15T09:44:02;3.30;99.90
6581;DHT22;3324;50.796;7.228;2024-01-15T09:46:28;3.30;99.90
6581;DHT22;3324;50.796;7.228;2024-01-15T09:48:53;3.20;99.90
6581;DHT22;3324;50.796;7.228;2024-01-15T09:51:19;3.20;99.90
6581;DHT22;3324;50.796;7.228;2024-01-15T09:53:45;3.20;99.90
6581;DHT22;3324;50.796;7.228;2024-01-15T09:56:11;3.30;99.90
6581;DHT22;3324;50.796;7.228;2024-01-15T09:58:37;3.30;99.90
6581;DHT22;3324;50.796;7.228;2024-01-15T10:01:03;3.20;99.90
6581;DHT22;3324;50.796;7.228;2024-01-15T10:03:29;3.20;99.90
6581;DHT22;3324;50.796;7.228;2024-01-15T10:05:55;3.20;99.90
6581;DHT22;3324;50.796;7.228;2024-01-15T10:08:21;3.10;99.90
6581;DHT22;3324;50.796;7.228;2024-01-15T10:10:47;3.10;99.90
6581;DHT22;3324;50.796;7.228;2024-01-15T10:13:13;3.00;99.90
6581;DHT22;3324;50.796;7.228;2024-01-15T10:15:39;2.90;99.90
6581;DHT22;3324;50.796;7.228;2024-01-15T10:18:05;2.90;99.90
6581;DHT22;3324;50.796;7.228;2024-01-15T10:20:33;2.90;99.90
6581;DHT22;3324;50.796;7.228;2024-01-15T10:22:59;2.90;99.90
6581;DHT22;3324;50.796;7.228;2024-01-15T10:25:24;2.90;99.90
6581;DHT22;3324;50.796;7.228;2024-01-15T10:27:58;2.80;99.90
6581;DHT22;3324;50.796;7.228;2024-01-15T10:30:24;3.00;99.90
6581;DHT22;3324;50.796;7.228;2024-01-15T10:32:57;3.10;99.90
6581;DHT22;3324;50.796;7.228;2024-01-15T10:35:22;3.10;99.90
6581;DHT22;3324;50.796;7.228;2024-01-15T10:37:48;3.10;99.90
6581;DHT22;3324;50.796;7.228;2024-01-15T10:40:14;3.20;99.90
6581;DHT22;3324;50.796;7.228;2024-01-15T10:42:39;3.10;99.90
6581;DHT22;3324;50.796;7.228;2024-01-15T10:45:06;3.10;99.90
6581;DHT22;3324;50.796;7.228;2024-01-15T10:47:34;3.00;99.90
6581;DHT22;3324;50.796;7.228;2024-01-15T10:49:59;3.00;99.90
6581;DHT22;3324;50.796;7.228;2024-01-15T10:52:26;2.90;99.90
6581;DHT22;3324;50.796;7.228;2024-01-15T10:54:52;2.90;99.90
6581;DHT22;3324;50.796;7.228;2024-01-15T10:57:18;2.90;99.90
6581;DHT22;3324;50.796;7.228;2024-01-15T10:59:45;2.90;99.90
6581;DHT22;3324;50.796;7.228;2024-01-15T11:02:11;2.80;99.90
6581;DHT22;3324;50.796;7.228;2024-01-15T11:04:37;2.70;99.90
6581;DHT22;3324;50.796;7.228;2024-01-15T11:07:03;2.70;99.90
6581;DHT22;3324;50.796;7.228;2024-01-15T11:09:29;2.70;99.90
6581;DHT22;3324;50.796;7.228;2024-01-15T11:12:09;2.70;99.90
6581;DHT22;3324;50.796;7.228;2024-01-15T11:17:00;2.60;99.90
6581;DHT22;3324;50.796;7.228;2024-01-15T11:19:30;2.60;99.90
6581;DHT22;3324;50.796;7.228;2024-01-15T11:22:00;2.70;99.90
6581;DHT22;3324;50.796;7.228;2024-01-15T11:24:35;2.60;99.90
6581;DHT22;3324;50.796;7.228;2024-01-15T11:27:04;2.70;99.90
6581;DHT22;3324;50.796;7.228;2024-01-15T11:29:34;2.70;99.90
6581;DHT22;3324;50.796;7.228;2024-01-15T11:37:10;2.50;99.90
6581;DHT22;3324;50.796;7.228;2024-01-15T11:39:40;2.60;99.90
6581;DHT22;3324;50.796;7.228;2024-01-15T11:42:09;2.60;99.90
6581;DHT22;3324;50.796;7.228;2024-01-15T11:44:34;2.60;99.90
6581;DHT22;3324;50.796;7.228;2024-01-15T11:47:01;2.60;99.90
6581;DHT22;3324;50.796;7.228;2024-01-15T11:51:53;2.70;99.90
6581;DHT22;3324;50.796;7.228;2024-01-15T11:54:20;2.70;99.90
6581;DHT22;3324;50.796;7.228;2024-01-15T11:56:47;2.70;99.90
6581;DHT22;3324;50.796;7.228;2024-01-15T11:59:13;2.80;99.90
6581;DHT22;3324;50.796;7.228;2024-01-15T12:01:39;2.80;99.90
6581;DHT22;3324;50.796;7.228;2024-01-15T12:04:04;2.80;99.90
6581;DHT22;3324;50.796;7.228;2024-01-15T12:06:30;2.80;99.90
6581;DHT22;3324;50.796;7.228;2024-01-15T12:09:07;2.90;99.90
6581;DHT22;3324;50.796;7.228;2024-01-15T12:11:33;2.80;99.90
6581;DHT22;3324;50.796;7.228;2024-01-15T12:14:01;2.80;99.90
6581;DHT22;3324;50.796;7.228;2024-01-15T12:16:26;2.80;99.90
6581;DHT22;3324;50.796;7.228;2024-01-15T12:18:52;2.90;99.90
6581;DHT22;3324;50.796;7.228;2024-01-15T12:21:17;2.90;99.90
6581;DHT22;3324;50.796;7.228;2024-01-15T12:23:45;2.90;99.90
6581;DHT22;3324;50.796;7.228;2024-01-15T12:26:11;2.90;99.90
6581;DHT22;3324;50.796;7.228;2024-01-15T12:28:36;2.80;99.90
6581;DHT22;3324;50.796;7.228;2024-01-15T12:31:02;2.80;99.90
6581;DHT22;3324;50.796;7.228;2024-01-15T12:33:30;2.90;99.90
6581;DHT22;3324;50.796;7.228;2024-01-15T12:35:56;2.80;99.90
6581;DHT22;3324;50.796;7.228;2024-01-15T12:38:21;2.90;99.90
6581;DHT22;3324;50.796;7.228;2024-01-15T12:40:47;2.90;99.90
6581;DHT22;3324;50.796;7.228;2024-01-15T12:43:13;3.10;99.90
6581;DHT22;3324;50.796;7.228;2024-01-15T12:45:38;3.20;99.90
6581;DHT22;3324;50.796;7.228;2024-01-15T12:48:04;3.40;99.90
6581;DHT22;3324;50.796;7.228;2024-01-15T12:50:30;3.40;99.90
6581;DHT22;3324;50.796;7.228;2024-01-15T12:52:56;3.50;99.90
6581;DHT22;3324;50.796;7.228;2024-01-15T12:55:21;3.50;99.90
6581;DHT22;3324;50.796;7.228;2024-01-15T12:57:47;3.50;99.90
6581;DHT22;3324;50.796;7.228;2024-01-15T13:00:13;3.50;99.90
6581;DHT22;3324;50.796;7.228;2024-01-15T13:02:38;3.40;99.90
6581;DHT22;3324;50.796;7.228;2024-01-15T13:05:05;3.40;99.90
6581;DHT22;3324;50.796;7.228;2024-01-15T13:07:31;3.40;99.90
6581;DHT22;3324;50.796;7.228;2024-01-15T13:09:57;3.30;99.90
6581;DHT22;3324;50.796;7.228;2024-01-15T13:12:22;3.30;99.90
6581;DHT22;3324;50.796;7.228;2024-01-15T13:14:48;3.40;99.90
6581;DHT22;3324;50.796;7.228;2024-01-15T13:17:13;3.40;99.90
6581;DHT22;3324;50.796;7.228;2024-01-15T13:19:41;3.30;99.90
6581;DHT22;3324;50.796;7.228;2024-01-15T13:22:07;3.40;99.90
6581;DHT22;3324;50.796;7.228;2024-01-15T13:24:34;3.40;99.90
6581;DHT22;3324;50.796;7.228;2024-01-15T13:27:02;3.50;99.90
6581;DHT22;3324;50.796;7.228;2024-01-15T13:29:27;3.40;99.90
6581;DHT22;3324;50.796;7.228;2024-01-15T13:31:53;3.40;99.90
6581;DHT22;3324;50.796;7.228;2024-01-15T13:34:19;3.40;99.90
6581;DHT22;3324;50.796;7.228;2024-01-15T13:36:44;3.40;99.90
6581;DHT22;3324;50.796;7.228;2024-01-15T13:39:10;3.40;99.90
6581;DHT22;3324;50.796;7.228;2024-01-15T13:41:36;3.40;99.90
6581;DHT22;3324;50.796;7.228;2024-01-15T13:44:01;3.50;99.90
6581;DHT22;3324;50.796;7.228;2024-01-15T13:46:28;3.50;99.90
6581;DHT22;3324;50.796;7.228;2024-01-15T13:48:54;3.50;99.90
6581;DHT22;3324;50.796;7.228;2024-01-15T13:51:23;3.50;99.90
6581;DHT22;3324;50.796;7.228;2024-01-15T13:53:49;3.40;99.90
6581;DHT22;3324;50.796;7.228;2024-01-15T13:56:14;3.40;99.90
6581;DHT22;3324;50.796;7.228;2024-01-15T13:58:40;3.50;99.90
6581;DHT22;3324;50.796;7.228;2024-01-15T14:01:05;3.50;99.90
6581;DHT22;3324;50.796;7.228;2024-01-15T14:03:31;3.40;99.90
6581;DHT22;3324;50.796;7.228;2024-01-15T14:05:57;3.40;99.90
6581;DHT22;3324;50.796;7.228;2024-01-15T14:08:23;3.40;99.90
6581;DHT22;3324;50.796;7.228;2024-01-15T14:10:48;3.40;99.90
6581;DHT22;3324;50.796;7.228;2024-01-15T14:13:14;3.40;99.90
6581;DHT22;3324;50.796;7.228;2024-01-15T14:15:39;3.30;99.90
6581;DHT22;3324;50.796;7.228;2024-01-15T14:18:05;3.30;99.90
6581;DHT22;3324;50.796;7.228;2024-01-15T14:20:30;3.30;99.90
6581;DHT22;3324;50.796;7.228;2024-01-15T14:22:56;3.30;99.90
6581;DHT22;3324;50.796;7.228;2024-01-15T14:25:21;3.30;99.90
6581;DHT22;3324;50.796;7.228;2024-01-15T14:27:47;3.30;99.90
6581;DHT22;3324;50.796;7.228;2024-01-15T14:30:13;3.30;99.90
6581;DHT22;3324;50.796;7.228;2024-01-15T14:32:40;3.30;99.90
6581;DHT22;3324;50.796;7.228;2024-01-15T14:35:06;3.20;99.90
6581;DHT22;3324;50.796;7.228;2024-01-15T14:37:33;3.20;99.90
6581;DHT22;3324;50.796;7.228;2024-01-15T14:39:59;3.30;99.90
6581;DHT22;3324;50.796;7.228;2024-01-15T14:42:24;3.20;99.90
6581;DHT22;3324;50.796;7.228;2024-01-15T14:44:50;3.20;99.90
6581;DHT22;3324;50.796;7.228;2024-01-15T14:47:15;3.20;99.90
6581;DHT22;3324;50.796;7.228;2024-01-15T14:49:41;3.20;99.90
6581;DHT22;3324;50.796;7.228;2024-01-15T14:52:06;3.20;99.90
6581;DHT22;3324;50.796;7.228;2024-01-15T14:54:32;3.10;99.90
6581;DHT22;3324;50.796;7.228;2024-01-15T14:56:57;3.10;99.90
6581;DHT22;3324;50.796;7.228;2024-01-15T14:59:23;3.10;99.90
6581;DHT22;3324;50.796;7.228;2024-01-15T15:01:48;3.10;99.90
6581;DHT22;3324;50.796;7.228;2024-01-15T15:04:14;3.10;99.90
6581;DHT22;3324;50.796;7.228;2024-01-15T15:06:39;3.10;99.90
6581;DHT22;3324;50.796;7.228;2024-01-15T15:09:05;3.00;99.90
6581;DHT22;3324;50.796;7.228;2024-01-15T15:11:35;3.00;99.90
6581;DHT22;3324;50.796;7.228;2024-01-15T15:14:01;3.00;99.90
6581;DHT22;3324;50.796;7.228;2024-01-15T15:16:26;2.90;99.90
6581;DHT22;3324;50.796;7.228;2024-01-15T15:18:52;2.90;99.90
6581;DHT22;3324;50.796;7.228;2024-01-15T15:21:18;2.90;99.90
6581;DHT22;3324;50.796;7.228;2024-01-15T15:23:43;2.80;99.90
6581;DHT22;3324;50.796;7.228;2024-01-15T15:26:09;2.90;99.90
6581;DHT22;3324;50.796;7.228;2024-01-15T15:28:34;2.80;99.90
6581;DHT22;3324;50.796;7.228;2024-01-15T15:31:02;2.80;99.90
6581;DHT22;3324;50.796;7.228;2024-01-15T15:33:27;2.80;99.90
6581;DHT22;3324;50.796;7.228;2024-01-15T15:35:53;2.90;99.90
6581;DHT22;3324;50.796;7.228;2024-01-15T15:38:19;2.80;99.90
6581;DHT22;3324;50.796;7.228;2024-01-15T15:40:45;2.80;99.90
6581;DHT22;3324;50.796;7.228;2024-01-15T15:43:10;2.80;99.90
6581;DHT22;3324;50.796;7.228;2024-01-15T15:45:36;2.90;99.90
6581;DHT22;3324;50.796;7.228;2024-01-15T15:48:01;2.90;99.90
6581;DHT22;3324;50.796;7.228;2024-01-15T15:50:26;2.80;99.90
6581;DHT22;3324;50.796;7.228;2024-01-15T15:52:52;2.90;99.90
6581;DHT22;3324;50.796;7.228;2024-01-15T15:55:17;2.90;99.90
6581;DHT22;3324;50.796;7.228;2024-01-15T15:57:43;2.80;99.90
6581;DHT22;3324;50.796;7.228;2024-01-15T16:00:09;2.80;99.90
6581;DHT22;3324;50.796;7.228;2024-01-15T16:02:34;2.80;99.90
6581;DHT22;3324;50.796;7.228;2024-01-15T16:05:00;2.90;99.90
6581;DHT22;3324;50.796;7.228;2024-01-15T16:07:26;2.90;99.90
6581;DHT22;3324;50.796;7.228;2024-01-15T16:09:54;2.80;99.90
6581;DHT22;3324;50.796;7.228;2024-01-15T16:12:20;2.90;99.90
6581;DHT22;3324;50.796;7.228;2024-01-15T16:14:45;2.80;99.90
6581;DHT22;3324;50.796;7.228;2024-01-15T16:17:11;2.80;99.90